Time;durP1;ratioP1;P1;durP2;ratioP2;P2;SDS_P1;SDS_P2;PMS_P1;PMS_P2;Temp;Humidity;BMP_temperature;BMP_pressure;BME280_temperature;BME280_humidity;BME280_pressure;Samples;Min_cycle;Max_cycle;Signal;HPM_P1;HPM_P2
2022/06/12 00:00:51;;;;;;;6.17;1.70;;;17.70;1.00;;;;;;5072966;28;20168;-94
2022/06/12 00:03:19;;;;;;;6.23;1.80;;;17.70;1.00;;;;;;5086006;28;20173;-94
2022/06/12 00:05:48;;;;;;;8.10;1.70;;;17.60;1.00;;;;;;5063475;28;20585;-94
2022/06/12 00:08:15;;;;;;;4.13;1.60;;;17.50;1.00;;;;;;5061940;28;20165;-94
2022/06/12 00:10:44;;;;;;;3.60;1.70;;;17.60;1.00;;;;;;5062115;28;20188;-93
2022/06/12 00:13:13;;;;;;;5.47;2.03;;;17.70;1.00;;;;;;5078211;28;20247;-94
2022/06/12 00:15:39;;;;;;;6.30;1.80;;;17.50;1.00;;;;;;5059527;28;20168;-93
2022/06/12 00:18:05;;;;;;;5.03;1.80;;;17.50;1.00;;;;;;5059827;28;20173;-93
2022/06/12 00:20:33;;;;;;;6.03;1.80;;;17.50;1.00;;;;;;5060234;28;20193;-94
2022/06/12 00:22:59;;;;;;;4.07;1.40;;;17.50;1.00;;;;;;5064273;28;20196;-93
2022/06/12 00:25:30;;;;;;;5.40;1.90;;;17.50;1.00;;;;;;5062299;28;20173;-91
2022/06/12 00:27:56;;;;;;;5.10;1.57;;;17.50;1.00;;;;;;5062225;28;20164;-93
2022/06/12 00:30:25;;;;;;;6.67;2.23;;;17.50;1.00;;;;;;5061354;28;20243;-93
2022/06/12 00:32:52;;;;;;;5.77;1.93;;;17.50;1.00;;;;;;5062997;28;20292;-94
2022/06/12 00:35:24;;;;;;;6.60;2.30;;;17.40;1.00;;;;;;5060765;28;20172;-95
2022/06/12 00:37:50;;;;;;;8.90;2.50;;;17.30;1.00;;;;;;5079139;28;20156;-85
2022/06/12 00:40:17;;;;;;;8.40;2.43;;;17.30;1.00;;;;;;5082160;28;20236;-88
2022/06/12 00:42:56;;;;;;;6.93;2.83;;;17.30;1.00;;;;;;5080101;28;20200;-86
2022/06/12 00:45:32;;;;;;;8.13;2.60;;;17.30;1.00;;;;;;5070277;28;20170;-92
2022/06/12 00:51:20;;;;;;;6.17;2.40;;;17.30;1.00;;;;;;5077498;28;20252;-91
2022/06/12 00:54:04;;;;;;;6.93;2.17;;;17.00;1.00;;;;;;5059178;28;20944;-94
2022/06/12 00:56:34;;;;;;;4.63;2.23;;;17.00;1.00;;;;;;5060310;28;20194;-93
2022/06/12 00:59:08;;;;;;;5.93;1.93;;;16.90;1.00;;;;;;5059259;28;20168;-92
2022/06/12 01:01:37;;;;;;;5.50;2.40;;;16.80;1.00;;;;;;5072819;28;20190;-93
2022/06/12 01:06:52;;;;;;;6.70;2.20;;;16.80;1.00;;;;;;5097718;28;20180;-89
2022/06/12 01:09:24;;;;;;;5.83;2.23;;;16.80;1.00;;;;;;5078969;28;20183;-92
2022/06/12 01:11:55;;;;;;;7.60;2.50;;;16.70;1.00;;;;;;5066161;28;20238;-93
2022/06/12 01:14:56;;;;;;;5.50;2.10;;;16.60;1.00;;;;;;5065161;28;20172;-91
2022/06/12 01:17:24;;;;;;;4.50;1.90;;;16.50;1.00;;;;;;5059336;28;20167;-92
2022/06/12 01:19:55;;;;;;;6.83;2.20;;;16.40;1.00;;;;;;5058392;28;20222;-91
2022/06/12 01:23:01;;;;;;;8.13;2.57;;;16.40;1.00;;;;;;5058491;28;20279;-93
2022/06/12 01:25:45;;;;;;;6.40;1.53;;;16.30;1.00;;;;;;5058234;28;20624;-93
2022/06/12 01:28:23;;;;;;;5.00;1.97;;;16.20;1.00;;;;;;5081344;28;20172;-88
2022/06/12 01:31:06;;;;;;;7.50;2.40;;;16.20;1.00;;;;;;5080204;28;20172;-92
2022/06/12 01:34:17;;;;;;;8.40;2.10;;;16.10;1.00;;;;;;5066022;28;20239;-93
2022/06/12 01:36:57;;;;;;;8.57;2.10;;;16.20;1.00;;;;;;5063844;28;20651;-94
2022/06/12 01:39:22;;;;;;;8.17;2.50;;;16.20;1.00;;;;;;5063937;28;20167;-90
2022/06/12 01:42:15;;;;;;;4.53;1.60;;;16.20;1.00;;;;;;5077819;28;20169;-93
2022/06/12 01:44:49;;;;;;;8.20;2.00;;;16.10;1.00;;;;;;5062812;28;20172;-91
2022/06/12 01:47:50;;;;;;;6.97;2.13;;;16.10;1.00;;;;;;5075802;28;20167;-93
2022/06/12 01:50:25;;;;;;;6.87;1.90;;;16.20;1.00;;;;;;5059473;28;20184;-92
2022/06/12 01:53:13;;;;;;;8.77;1.97;;;16.20;1.00;;;;;;5057479;28;20219;-94
2022/06/12 01:55:46;;;;;;;6.83;1.93;;;16.20;1.00;;;;;;5057649;28;20203;-94
2022/06/12 01:58:16;;;;;;;6.90;2.13;;;16.20;1.00;;;;;;5068732;28;20168;-86
2022/06/12 02:00:46;;;;;;;5.30;2.03;;;16.30;1.00;;;;;;5081229;28;20169;-90
2022/06/12 02:03:35;;;;;;;7.27;2.20;;;16.30;1.00;;;;;;5080880;28;20184;-94
2022/06/12 02:06:15;;;;;;;5.37;2.00;;;16.30;1.00;;;;;;5062663;28;20180;-92
2022/06/12 02:08:50;;;;;;;8.03;2.10;;;16.50;1.00;;;;;;5062698;28;20198;-92
2022/06/12 02:14:14;;;;;;;7.37;2.37;;;16.50;1.00;;;;;;5078723;28;20155;-92
2022/06/12 02:16:45;;;;;;;6.03;1.90;;;16.50;1.00;;;;;;5080960;28;20219;-90
2022/06/12 02:19:18;;;;;;;7.93;2.33;;;16.40;1.00;;;;;;5080515;28;20180;-91
2022/06/12 02:22:40;;;;;;;6.73;2.23;;;16.30;1.00;;;;;;5065836;28;20276;-94
2022/06/12 02:25:33;;;;;;;8.23;2.10;;;16.20;1.00;;;;;;5061986;28;20690;-93
2022/06/12 02:28:15;;;;;;;6.83;2.03;;;16.10;1.00;;;;;;5065741;28;20172;-93
2022/06/12 02:30:44;;;;;;;5.67;2.20;;;16.10;1.00;;;;;;5063050;28;20180;-86
2022/06/12 02:33:25;;;;;;;8.87;2.20;;;16.10;1.00;;;;;;5066785;28;20187;-87
2022/06/12 02:36:09;;;;;;;7.57;2.00;;;16.00;1.00;;;;;;5084838;28;20259;-88
2022/06/12 02:38:41;;;;;;;5.97;2.10;;;16.00;1.00;;;;;;5083726;28;20156;-90
2022/06/12 02:41:44;;;;;;;5.97;2.30;;;15.80;1.00;;;;;;5076560;28;20273;-86
2022/06/12 02:44:26;;;;;;;6.30;1.90;;;15.90;1.00;;;;;;5044186;28;20219;-92
2022/06/12 02:46:59;;;;;;;7.53;2.57;;;15.80;1.00;;;;;;5061580;28;20255;-91
2022/06/12 02:49:28;;;;;;;7.73;2.63;;;15.80;1.00;;;;;;5062179;28;20179;-92
2022/06/12 02:52:06;;;;;;;8.27;2.20;;;15.70;1.00;;;;;;5063917;28;20208;-92
2022/06/12 02:55:15;;;;;;;8.17;2.57;;;15.70;1.00;;;;;;5067992;28;20640;-91
2022/06/12 02:57:51;;;;;;;8.30;2.27;;;15.60;1.00;;;;;;5062276;28;20164;-92
2022/06/12 03:00:19;;;;;;;9.03;2.60;;;15.60;1.00;;;;;;5081590;28;20168;-91
2022/06/12 03:03:10;;;;;;;7.43;2.47;;;15.70;1.00;;;;;;5083160;28;20222;-86
2022/06/12 03:05:39;;;;;;;7.53;2.40;;;15.70;1.00;;;;;;5071922;28;20192;-92
2022/06/12 03:08:15;;;;;;;11.87;2.73;;;15.60;1.00;;;;;;5070690;28;20161;-93
2022/06/12 03:10:55;;;;;;;5.70;2.27;;;15.70;1.00;;;;;;5061390;28;20160;-93
2022/06/12 03:13:25;;;;;;;10.17;2.50;;;15.50;1.00;;;;;;5060594;28;20294;-91
2022/06/12 03:16:08;;;;;;;10.20;2.73;;;15.50;1.00;;;;;;5060544;28;20632;-93
2022/06/12 03:18:39;;;;;;;7.33;2.40;;;15.50;1.00;;;;;;5043812;28;20176;-93
2022/06/12 03:21:22;;;;;;;6.73;2.17;;;15.50;1.00;;;;;;5060532;28;20252;-94
2022/06/12 03:24:03;;;;;;;8.47;2.43;;;15.40;1.00;;;;;;5070258;28;20172;-86
2022/06/12 03:26:32;;;;;;;7.90;2.47;;;15.30;1.00;;;;;;5074152;28;20247;-89
2022/06/12 03:29:37;;;;;;;8.53;2.30;;;15.30;1.00;;;;;;5062603;28;20180;-92
2022/06/12 03:32:29;;;;;;;7.40;2.30;;;15.30;1.00;;;;;;5019753;28;20589;-95
2022/06/12 03:35:11;;;;;;;7.77;2.53;;;15.10;1.00;;;;;;5059363;28;20243;-91
2022/06/12 03:37:52;;;;;;;9.60;2.60;;;15.00;3.70;;;;;;5060761;28;20168;-92
2022/06/12 03:40:35;;;;;;;8.70;2.93;;;14.90;7.40;;;;;;5065574;28;20242;-93
2022/06/12 03:43:21;;;;;;;5.47;2.37;;;15.00;7.40;;;;;;5066352;28;20660;-93
2022/06/12 03:46:02;;;;;;;7.77;3.00;;;15.00;7.30;;;;;;5067198;28;20195;-93
2022/06/12 03:49:00;;;;;;;9.97;3.03;;;15.00;6.80;;;;;;5065047;28;20249;-92
2022/06/12 03:51:25;;;;;;;10.57;2.43;;;15.10;5.90;;;;;;5030459;28;20672;-93
2022/06/12 03:54:04;;;;;;;6.73;2.33;;;15.00;8.30;;;;;;5067391;28;20179;-92
2022/06/12 03:59:33;;;;;;;10.87;3.00;;;15.00;11.70;;;;;;5089224;28;20176;-93
2022/06/12 04:02:03;;;;;;;11.30;2.67;;;14.90;14.00;;;;;;5075367;28;20179;-93
2022/06/12 04:04:31;;;;;;;7.47;2.47;;;15.00;12.90;;;;;;5079784;28;20176;-93
2022/06/12 04:07:03;;;;;;;8.03;2.43;;;15.20;10.40;;;;;;5065309;28;20156;-92
2022/06/12 04:09:35;;;;;;;9.50;3.00;;;15.10;11.00;;;;;;5082841;28;20163;-92
2022/06/12 04:12:09;;;;;;;11.10;2.80;;;15.10;12.70;;;;;;5081391;28;20203;-91
2022/06/12 04:14:46;;;;;;;7.20;2.17;;;15.10;11.60;;;;;;5064660;28;20180;-92
2022/06/12 04:17:15;;;;;;;9.63;2.60;;;15.20;6.90;;;;;;5079686;28;20166;-92
2022/06/12 04:20:01;;;;;;;8.97;2.80;;;15.40;3.60;;;;;;5061584;28;20196;-91
2022/06/12 04:22:47;;;;;;;8.23;2.83;;;15.30;8.00;;;;;;5095280;28;20302;-94
2022/06/12 04:25:30;;;;;;;8.03;2.73;;;15.20;9.20;;;;;;5078324;28;20187;-94
2022/06/12 04:27:56;;;;;;;7.40;3.03;;;15.30;12.80;;;;;;5073824;28;20176;-93
2022/06/12 04:30:30;;;;;;;9.83;2.67;;;15.30;11.20;;;;;;5056647;28;20184;-91
2022/06/12 04:33:35;;;;;;;7.93;2.70;;;15.30;8.90;;;;;;5081582;28;20222;-92
2022/06/12 04:36:05;;;;;;;8.30;2.70;;;15.40;5.90;;;;;;5081442;28;20183;-93
2022/06/12 04:38:41;;;;;;;8.83;2.77;;;15.50;4.00;;;;;;5080909;28;20152;-93
2022/06/12 04:41:29;;;;;;;8.67;3.10;;;15.50;1.00;;;;;;5069898;28;20182;-93
2022/06/12 04:43:58;;;;;;;8.00;2.83;;;15.50;1.00;;;;;;5062463;28;20162;-94
2022/06/12 04:46:24;;;;;;;7.37;2.77;;;15.50;2.80;;;;;;5060694;28;20180;-93
2022/06/12 04:48:55;;;;;;;10.07;3.00;;;15.40;5.80;;;;;;5061042;28;20241;-91
2022/06/12 04:51:25;;;;;;;8.60;2.57;;;15.30;9.60;;;;;;5059896;28;20230;-92
2022/06/12 04:53:54;;;;;;;9.17;2.70;;;15.40;9.20;;;;;;5061898;28;20183;-92
2022/06/12 04:56:22;;;;;;;7.57;2.63;;;15.40;9.90;;;;;;5063846;28;20759;-93
2022/06/12 04:58:49;;;;;;;10.57;3.00;;;15.50;10.90;;;;;;5066934;28;20176;-93
2022/06/12 05:01:16;;;;;;;9.57;2.80;;;15.70;3.60;;;;;;5097579;28;20172;-88
2022/06/12 05:03:42;;;;;;;10.20;3.23;;;15.70;3.10;;;;;;5081646;28;20198;-88
2022/06/12 05:06:08;;;;;;;8.37;3.27;;;15.90;1.00;;;;;;5080972;28;20203;-91
2022/06/12 05:08:36;;;;;;;10.20;3.23;;;15.90;1.00;;;;;;5081141;28;20209;-85
2022/06/12 05:11:03;;;;;;;9.47;3.10;;;16.00;1.00;;;;;;5088310;28;20167;-94
2022/06/12 05:13:30;;;;;;;14.20;3.50;;;15.90;1.00;;;;;;5080913;28;20196;-92
2022/06/12 05:15:56;;;;;;;10.03;2.87;;;15.80;1.00;;;;;;5062968;28;20161;-94
2022/06/12 05:18:22;;;;;;;11.67;3.10;;;15.70;6.90;;;;;;5062207;28;20176;-91
2022/06/12 05:20:49;;;;;;;13.60;3.57;;;15.60;11.60;;;;;;5062130;28;20244;-86
2022/06/12 05:23:15;;;;;;;8.97;3.00;;;15.70;11.60;;;;;;5080995;28;20218;-88
2022/06/12 05:25:43;;;;;;;9.67;3.30;;;15.70;11.60;;;;;;5079983;28;20187;-91
2022/06/12 05:28:12;;;;;;;11.27;3.10;;;15.90;2.70;;;;;;5067886;28;20176;-91
2022/06/12 05:30:38;;;;;;;8.60;2.90;;;16.10;1.00;;;;;;5084917;28;20165;-90
2022/06/12 05:33:05;;;;;;;10.97;3.67;;;16.10;1.00;;;;;;5064403;28;20225;-90
2022/06/12 05:35:35;;;;;;;10.23;3.07;;;16.00;1.00;;;;;;5063431;28;20199;-92
2022/06/12 05:38:01;;;;;;;8.97;2.83;;;16.00;3.30;;;;;;5061664;28;20172;-93
2022/06/12 05:40:30;;;;;;;10.07;3.17;;;15.90;10.60;;;;;;5062193;28;20176;-93
2022/06/12 05:42:56;;;;;;;11.90;3.37;;;15.90;14.00;;;;;;5060984;28;20169;-93
2022/06/12 05:45:25;;;;;;;10.03;3.30;;;16.00;9.50;;;;;;5062049;28;20183;-92
2022/06/12 05:47:55;;;;;;;9.27;3.23;;;16.00;11.30;;;;;;5065831;28;20179;-92
2022/06/12 05:50:26;;;;;;;9.53;3.13;;;16.10;14.30;;;;;;5072910;28;20306;-91
2022/06/12 05:52:53;;;;;;;14.20;3.77;;;16.10;11.90;;;;;;5073784;28;20214;-92
2022/06/12 05:55:18;;;;;;;8.73;3.50;;;16.20;13.30;;;;;;5060130;28;20176;-91
2022/06/12 05:57:44;;;;;;;11.57;3.87;;;16.30;12.00;;;;;;5076071;28;20225;-89
2022/06/12 06:00:18;;;;;;;9.70;3.20;;;16.40;10.60;;;;;;5081013;28;20226;-90
2022/06/12 06:02:44;;;;;;;14.40;3.40;;;16.50;8.90;;;;;;5071735;28;20188;-91
2022/06/12 06:05:11;;;;;;;10.97;4.00;;;16.40;8.80;;;;;;5068580;28;20244;-92
2022/06/12 06:07:37;;;;;;;12.07;3.70;;;16.60;9.20;;;;;;5047537;28;20172;-93
2022/06/12 06:10:15;;;;;;;10.80;4.13;;;16.60;8.60;;;;;;5081123;28;20647;-91
2022/06/12 06:12:53;;;;;;;12.47;4.50;;;16.70;8.30;;;;;;5051300;28;20258;-93
2022/06/12 06:15:20;;;;;;;11.33;3.23;;;16.80;5.00;;;;;;5073911;28;20228;-93
2022/06/12 06:17:46;;;;;;;13.20;3.87;;;16.80;4.00;;;;;;5076026;28;20196;-93
2022/06/12 06:20:16;;;;;;;12.97;4.27;;;16.90;1.60;;;;;;5072081;28;20215;-91
2022/06/12 06:22:42;;;;;;;11.57;4.17;;;16.80;11.00;;;;;;5063675;28;20168;-92
2022/06/12 06:25:12;;;;;;;15.33;4.03;;;16.80;13.50;;;;;;5062867;28;20169;-93
2022/06/12 06:27:41;;;;;;;13.77;4.17;;;17.00;11.60;;;;;;5070111;28;20148;-88
2022/06/12 06:30:07;;;;;;;13.33;4.00;;;17.10;3.60;;;;;;5080893;28;20164;-89
2022/06/12 06:32:34;;;;;;;13.13;4.70;;;17.20;7.40;;;;;;5097589;28;20200;-87
2022/06/12 06:35:01;;;;;;;13.87;4.50;;;17.30;5.80;;;;;;5067810;28;20173;-91
2022/06/12 06:37:27;;;;;;;15.97;4.73;;;17.40;3.80;;;;;;5063226;28;20177;-91
2022/06/12 06:39:56;;;;;;;13.77;4.93;;;17.40;2.20;;;;;;5059575;28;20224;-91
2022/06/12 06:42:23;;;;;;;16.73;5.37;;;17.50;3.70;;;;;;5060284;28;20169;-90
2022/06/12 06:47:56;;;;;;;15.03;4.97;;;17.20;14.70;;;;;;5099545;28;20191;-85
2022/06/12 06:50:22;;;;;;;15.23;4.73;;;17.10;21.40;;;;;;5079437;28;20180;-87
2022/06/12 06:52:50;;;;;;;14.83;5.17;;;17.10;24.10;;;;;;5086042;28;20216;-89
2022/06/12 06:55:17;;;;;;;17.07;5.03;;;17.20;22.40;;;;;;5064960;28;20216;-90
2022/06/12 06:57:50;;;;;;;17.77;5.47;;;17.30;24.30;;;;;;5057402;28;20168;-91
2022/06/12 07:00:28;;;;;;;13.37;4.87;;;17.20;24.50;;;;;;5058165;28;20169;-91
2022/06/12 07:02:54;;;;;;;14.00;4.47;;;17.50;21.50;;;;;;5057351;28;20204;-89
2022/06/12 07:05:21;;;;;;;17.40;5.23;;;17.60;20.00;;;;;;5056916;28;20188;-88
2022/06/12 07:07:47;;;;;;;12.37;4.67;;;17.70;13.80;;;;;;5056798;28;20544;-89
2022/06/12 07:10:17;;;;;;;15.47;4.77;;;17.80;11.80;;;;;;5059354;28;20259;-92
2022/06/12 07:12:44;;;;;;;12.70;4.60;;;17.80;16.90;;;;;;5059665;28;20680;-89
2022/06/12 07:15:13;;;;;;;16.20;5.37;;;17.90;14.90;;;;;;5060338;28;20177;-92
2022/06/12 07:17:40;;;;;;;17.70;5.10;;;18.20;7.90;;;;;;5060796;28;20177;-94
2022/06/12 07:20:08;;;;;;;13.07;4.90;;;18.30;6.50;;;;;;5096997;28;20232;-92
2022/06/12 07:22:45;;;;;;;11.17;4.60;;;18.50;3.60;;;;;;5075295;28;20176;-92
2022/06/12 07:25:17;;;;;;;13.17;4.80;;;18.70;1.00;;;;;;5073691;28;20207;-85
2022/06/12 07:31:21;;;;;;;16.10;5.03;;;18.90;1.00;;;;;;5121195;28;20143;-88
2022/06/12 07:34:05;;;;;;;14.10;4.50;;;19.00;1.00;;;;;;5103315;28;20202;-94
2022/06/12 07:37:18;;;;;;;15.60;4.53;;;19.20;1.00;;;;;;5103919;28;20375;-84
2022/06/12 07:40:22;;;;;;;15.43;4.27;;;19.40;1.00;;;;;;5103274;28;20187;-85
2022/06/12 07:43:11;;;;;;;16.03;4.40;;;19.60;1.00;;;;;;5119299;28;20180;-92
2022/06/12 07:49:02;;;;;;;13.87;5.53;;;19.50;1.00;;;;;;5121220;28;20172;-93
2022/06/12 07:51:29;;;;;;;18.03;5.80;;;19.70;1.00;;;;;;5120622;28;20212;-94
2022/06/12 07:54:01;;;;;;;17.57;5.27;;;19.80;1.00;;;;;;5115513;28;20177;-94
2022/06/12 07:56:53;;;;;;;13.63;5.13;;;19.90;1.00;;;;;;5099633;28;20170;-96
2022/06/12 07:59:19;;;;;;;14.07;5.00;;;19.70;1.00;;;;;;5100327;28;20162;-86
2022/06/12 08:01:45;;;;;;;15.97;5.73;;;19.80;1.00;;;;;;5103124;28;20171;-90
2022/06/12 08:04:11;;;;;;;16.70;5.23;;;19.90;1.00;;;;;;5103061;28;20190;-87
2022/06/12 08:06:37;;;;;;;15.57;5.20;;;19.90;1.00;;;;;;5102969;28;20179;-88
2022/06/12 08:09:10;;;;;;;18.57;5.23;;;19.90;1.00;;;;;;5089531;28;20189;-90
2022/06/12 08:11:41;;;;;;;12.97;4.57;;;20.10;1.00;;;;;;5098836;28;20199;-93
2022/06/12 08:14:14;;;;;;;11.97;4.53;;;20.00;1.00;;;;;;5086503;28;20210;-93
2022/06/12 08:16:42;;;;;;;13.60;4.67;;;20.10;1.00;;;;;;5082451;28;20243;-92
2022/06/12 08:22:03;;;;;;;12.27;3.73;;;20.00;1.00;;;;;;5092205;28;20174;-93
2022/06/12 08:24:29;;;;;;;14.13;4.10;;;20.00;1.00;;;;;;5068781;28;20198;-92
2022/06/12 08:26:58;;;;;;;13.73;3.73;;;20.00;1.00;;;;;;5077897;28;20207;-92
2022/06/12 08:29:25;;;;;;;9.97;3.27;;;20.10;1.00;;;;;;5074006;28;20169;-89
2022/06/12 08:32:01;;;;;;;9.93;3.47;;;20.30;1.00;;;;;;5067761;28;20208;-88
2022/06/12 08:34:39;;;;;;;11.57;3.97;;;20.40;1.00;;;;;;5064657;28;20201;-90
2022/06/12 08:37:13;;;;;;;12.70;4.13;;;20.30;1.00;;;;;;5071623;28;20252;-88
2022/06/12 08:39:39;;;;;;;11.17;3.93;;;20.20;1.00;;;;;;5065114;28;20244;-88
2022/06/12 08:42:12;;;;;;;11.00;3.87;;;20.20;1.00;;;;;;5082668;28;20702;-88
2022/06/12 08:44:53;;;;;;;14.63;3.73;;;20.20;1.00;;;;;;5074051;28;20199;-88
2022/06/12 08:47:36;;;;;;;9.87;3.47;;;20.10;1.00;;;;;;5075333;28;20207;-90
2022/06/12 08:50:33;;;;;;;11.30;3.17;;;20.10;1.00;;;;;;5075820;28;20174;-95
2022/06/12 08:53:02;;;;;;;11.17;3.47;;;20.20;1.00;;;;;;5077492;28;20270;-91
2022/06/12 08:55:49;;;;;;;9.47;3.07;;;20.20;1.00;;;;;;5087087;28;20181;-96
2022/06/12 08:58:27;;;;;;;10.20;2.83;;;20.30;1.00;;;;;;5072399;28;20260;-95
2022/06/12 09:00:57;;;;;;;13.83;2.70;;;20.50;1.00;;;;;;5097261;28;20165;-95
2022/06/12 09:03:36;;;;;;;10.23;2.70;;;20.70;1.00;;;;;;5071415;28;20175;-96
2022/06/12 09:06:46;;;;;;;8.03;2.43;;;20.60;99.90;;;;;;5103670;28;20184;-96
2022/06/12 09:09:45;;;;;;;10.93;3.37;;;20.80;99.90;;;;;;5086313;28;20192;-96
2022/06/12 09:12:26;;;;;;;8.57;2.77;;;20.90;99.90;;;;;;5051973;28;20234;-96
2022/06/12 09:15:15;;;;;;;7.37;2.60;;;21.00;99.90;;;;;;5062786;28;20269;-93
2022/06/12 09:18:23;;;;;;;9.77;2.90;;;21.00;99.90;;;;;;5088973;28;20174;-96
2022/06/12 09:21:11;;;;;;;6.53;2.57;;;21.00;99.90;;;;;;5026439;28;20240;-90
2022/06/12 09:24:19;;;;;;;8.10;2.27;;;21.00;99.90;;;;;;5071236;28;20213;-92
2022/06/12 09:26:51;;;;;;;7.73;2.50;;;21.00;99.90;;;;;;5075562;28;20183;-92
2022/06/12 09:29:46;;;;;;;7.40;2.30;;;20.90;1.00;;;;;;5075298;28;20179;-92
2022/06/12 09:32:42;;;;;;;7.27;2.60;;;20.90;1.00;;;;;;5086712;28;20292;-94
2022/06/12 09:35:08;;;;;;;8.13;2.43;;;20.70;33.40;;;;;;5077088;28;20269;-92
2022/06/12 09:41:24;;;;;;;8.20;2.67;;;20.60;1.00;;;;;;5088776;28;20186;-91
2022/06/12 09:43:58;;;;;;;7.00;2.23;;;20.70;1.00;;;;;;5051339;28;20196;-90
2022/06/12 09:46:24;;;;;;;6.53;2.30;;;21.00;16.20;;;;;;5070137;28;20204;-90
2022/06/12 09:49:14;;;;;;;9.17;2.83;;;21.10;1.00;;;;;;5076335;28;20642;-92
2022/06/12 09:52:35;;;;;;;9.53;2.40;;;20.90;29.50;;;;;;5079022;28;20262;-84
2022/06/12 09:55:41;;;;;;;8.53;2.80;;;20.90;1.00;;;;;;5105197;28;20173;-84
2022/06/12 09:58:50;;;;;;;9.23;2.53;;;21.20;99.90;;;;;;5080407;28;20301;-89
2022/06/12 10:01:26;;;;;;;7.43;3.20;;;21.20;99.90;;;;;;5106671;28;20182;-96
2022/06/12 10:03:55;;;;;;;7.20;2.50;;;21.30;1.00;;;;;;5084814;28;20182;-91
2022/06/12 10:07:05;;;;;;;8.13;2.70;;;21.20;1.00;;;;;;5091706;28;20179;-92
2022/06/12 10:09:41;;;;;;;7.33;2.50;;;21.40;1.00;;;;;;5082805;28;20191;-93
2022/06/12 10:12:36;;;;;;;9.23;3.00;;;21.40;1.00;;;;;;5094319;28;20249;-91
2022/06/12 10:15:26;;;;;;;7.57;2.67;;;21.30;1.00;;;;;;5083327;28;20248;-89
2022/06/12 10:18:32;;;;;;;9.30;2.97;;;21.40;1.00;;;;;;5076048;28;20224;-94
2022/06/12 10:21:06;;;;;;;9.43;2.60;;;21.20;1.00;;;;;;5071716;28;20275;-96
2022/06/12 10:23:32;;;;;;;10.10;3.37;;;21.10;1.00;;;;;;5070933;28;20225;-94
2022/06/12 10:26:00;;;;;;;10.17;3.60;;;21.00;1.60;;;;;;5077508;28;20184;-93
2022/06/12 10:28:36;;;;;;;8.03;3.20;;;21.20;99.90;;;;;;5084128;28;20181;-93
2022/06/12 10:31:12;;;;;;;10.90;3.40;;;21.30;99.90;;;;;;5087011;28;20182;-91
2022/06/12 10:33:56;;;;;;;9.17;3.20;;;21.50;1.00;;;;;;5089924;28;20265;-86
2022/06/12 10:36:27;;;;;;;10.07;2.87;;;21.80;99.90;;;;;;5088712;28;20168;-96
2022/06/12 10:39:15;;;;;;;7.90;3.17;;;21.90;1.00;;;;;;5107848;28;20171;-94
2022/06/12 10:41:46;;;;;;;7.03;2.90;;;21.90;46.40;;;;;;5092919;28;20799;-96
2022/06/12 10:44:34;;;;;;;11.83;2.87;;;21.80;1.00;;;;;;5079555;28;20183;-96
2022/06/12 10:47:25;;;;;;;9.10;3.00;;;21.90;99.90;;;;;;5077883;28;20182;-93
2022/06/12 10:50:13;;;;;;;9.97;3.03;;;21.70;99.90;;;;;;5101734;28;20160;-93
2022/06/12 10:52:51;;;;;;;9.17;3.23;;;21.80;99.90;;;;;;5085972;28;20270;-89
2022/06/12 10:55:24;;;;;;;8.07;3.00;;;21.80;37.90;;;;;;5099182;28;20193;-93
2022/06/12 10:58:11;;;;;;;9.63;3.00;;;21.70;1.00;;;;;;5093447;28;20203;-92
2022/06/12 11:01:18;;;;;;;8.97;3.20;;;22.00;1.00;;;;;;5099398;28;20215;-94
2022/06/12 11:04:30;;;;;;;9.60;2.90;;;22.20;16.70;;;;;;5096179;28;20164;-91
2022/06/12 11:07:16;;;;;;;8.53;3.07;;;22.30;99.90;;;;;;5097803;28;20168;-95
2022/06/12 11:10:16;;;;;;;9.40;3.17;;;22.10;99.90;;;;;;5091924;28;20179;-93
2022/06/12 11:13:06;;;;;;;10.43;3.03;;;21.80;1.00;;;;;;5082350;28;20219;-95
2022/06/12 11:18:59;;;;;;;7.83;2.60;;;21.80;99.90;;;;;;5087583;28;20195;-89
2022/06/12 11:22:07;;;;;;;7.77;2.67;;;22.30;1.00;;;;;;5091479;28;20597;-92
2022/06/12 11:24:56;;;;;;;8.17;2.67;;;22.30;1.00;;;;;;5083090;28;20179;-93
2022/06/12 11:27:54;;;;;;;8.17;2.40;;;22.50;23.80;;;;;;5091644;28;20237;-95
2022/06/12 11:30:53;;;;;;;6.33;2.67;;;22.60;1.00;;;;;;5102856;28;20181;-91
2022/06/12 11:33:39;;;;;;;8.13;2.70;;;22.70;1.00;;;;;;5079144;28;20211;-92
2022/06/12 11:36:30;;;;;;;7.57;2.80;;;22.60;99.90;;;;;;5087084;28;20180;-92
2022/06/12 11:39:27;;;;;;;7.33;2.67;;;22.80;1.00;;;;;;5073177;28;20172;-92
2022/06/12 11:42:12;;;;;;;7.80;2.77;;;22.70;1.00;;;;;;5093198;28;20165;-92
2022/06/12 11:44:56;;;;;;;19.17;10.33;;;22.60;1.00;;;;;;5070356;28;20172;-92
2022/06/12 11:47:22;;;;;;;8.20;2.80;;;22.70;99.90;;;;;;5073264;28;20199;-89
2022/06/12 11:49:56;;;;;;;7.80;2.60;;;22.60;1.00;;;;;;5064250;28;20179;-92
2022/06/12 11:52:36;;;;;;;7.27;2.53;;;22.70;99.90;;;;;;5096521;28;20226;-91
2022/06/12 11:55:32;;;;;;;9.10;2.60;;;22.70;99.90;;;;;;5079031;28;20180;-91
2022/06/12 11:58:03;;;;;;;8.37;2.73;;;22.90;99.90;;;;;;5067849;28;20180;-93
2022/06/12 12:00:40;;;;;;;7.53;2.97;;;23.00;99.90;;;;;;5078736;28;20175;-93
2022/06/12 12:03:40;;;;;;;9.40;2.60;;;22.90;1.00;;;;;;5073752;28;20206;-95
2022/06/12 12:06:33;;;;;;;4.93;2.30;;;22.70;99.90;;;;;;5074620;28;20176;-94
2022/06/12 12:09:29;;;;;;;8.33;2.83;;;22.50;1.00;;;;;;5071145;28;20213;-95
2022/06/12 12:12:19;;;;;;;10.77;3.13;;;22.60;1.00;;;;;;5090761;28;20652;-94
2022/06/12 12:14:47;;;;;;;7.70;2.27;;;22.30;99.90;;;;;;5093335;28;20179;-93
2022/06/12 12:17:26;;;;;;;8.70;2.40;;;22.40;10.60;;;;;;5074185;28;20180;-94
2022/06/12 12:20:03;;;;;;;7.63;2.50;;;22.40;55.60;;;;;;5080071;28;21025;-94
2022/06/12 12:22:37;;;;;;;8.17;2.63;;;22.20;1.00;;;;;;5073221;28;20172;-95
2022/06/12 12:25:16;;;;;;;7.20;3.03;;;22.40;99.90;;;;;;5067909;28;20244;-95
2022/06/12 12:27:55;;;;;;;8.20;3.10;;;22.70;99.90;;;;;;5070869;28;20180;-96
2022/06/12 12:30:24;;;;;;;9.13;3.07;;;22.70;73.50;;;;;;5072149;28;20172;-96
2022/06/12 12:32:56;;;;;;;8.80;3.43;;;22.70;1.00;;;;;;5075680;28;20268;-95
2022/06/12 12:41:13;;;;;;;10.67;4.07;;;22.60;1.00;;;;;;5080208;28;20199;-95
2022/06/12 12:43:58;;;;;;;8.27;2.73;;;22.70;1.00;;;;;;5072507;28;20201;-95
2022/06/12 12:46:45;;;;;;;7.70;2.80;;;22.70;99.90;;;;;;5068261;28;20175;-92
2022/06/12 12:49:39;;;;;;;5.73;2.70;;;22.50;1.00;;;;;;5068371;28;20263;-94
2022/06/12 12:52:15;;;;;;;9.10;2.80;;;22.70;99.90;;;;;;5075490;28;20225;-94
2022/06/12 12:55:01;;;;;;;8.00;2.73;;;22.90;70.80;;;;;;5082867;28;20172;-95
2022/06/12 12:57:43;;;;;;;7.60;2.77;;;22.90;99.90;;;;;;5088022;28;20205;-95
2022/06/12 13:00:34;;;;;;;7.60;2.60;;;22.70;99.90;;;;;;5075872;28;20177;-94
2022/06/12 13:03:12;;;;;;;7.37;2.53;;;22.90;99.90;;;;;;5088657;28;20203;-95
2022/06/12 13:05:47;;;;;;;6.30;2.40;;;23.10;99.90;;;;;;5070015;28;20190;-95
2022/06/12 13:08:43;;;;;;;6.40;2.53;;;22.90;1.00;;;;;;5098481;28;20181;-94
2022/06/12 13:11:11;;;;;;;7.43;2.80;;;22.60;1.00;;;;;;5074584;28;20182;-94
2022/06/12 13:14:06;;;;;;;7.13;2.23;;;22.70;60.90;;;;;;5077829;28;20197;-91
2022/06/12 13:17:10;;;;;;;6.40;2.37;;;22.90;1.00;;;;;;5093159;28;20171;-94
2022/06/12 13:19:53;;;;;;;6.57;2.50;;;23.10;47.40;;;;;;5085549;28;20234;-93
2022/06/12 13:22:35;;;;;;;5.57;2.20;;;23.10;1.00;;;;;;5090074;28;20165;-93
2022/06/12 13:25:11;;;;;;;5.27;2.50;;;23.00;1.00;;;;;;5091747;28;20167;-91
2022/06/12 13:27:55;;;;;;;5.13;2.40;;;23.30;1.00;;;;;;5088713;28;20305;-90
2022/06/12 13:30:43;;;;;;;6.33;2.43;;;23.00;99.90;;;;;;5100005;28;20162;-87
2022/06/12 13:33:35;;;;;;;8.10;2.53;;;22.60;1.00;;;;;;5096976;28;20262;-89
2022/06/12 13:36:41;;;;;;;5.33;2.27;;;22.40;1.00;;;;;;5101305;28;20198;-92
2022/06/12 13:39:26;;;;;;;7.63;2.23;;;22.30;99.90;;;;;;5091468;28;20190;-88
2022/06/12 13:42:13;;;;;;;5.53;2.37;;;22.50;1.00;;;;;;5087551;28;20164;-90
2022/06/12 13:44:43;;;;;;;5.33;1.80;;;22.60;1.00;;;;;;5087262;28;20160;-87
2022/06/12 13:47:18;;;;;;;7.37;2.70;;;22.50;99.90;;;;;;5103220;28;20191;-89
2022/06/12 13:49:55;;;;;;;6.03;2.13;;;22.60;99.90;;;;;;5083015;28;20167;-92
2022/06/12 13:52:26;;;;;;;5.63;1.93;;;22.60;99.90;;;;;;5091858;28;20225;-92
2022/06/12 13:54:54;;;;;;;6.33;2.10;;;22.80;99.90;;;;;;5081120;28;20264;-91
2022/06/12 13:57:35;;;;;;;4.57;1.90;;;23.10;99.90;;;;;;5103237;28;20168;-93
2022/06/12 14:00:46;;;;;;;5.33;1.93;;;23.00;1.00;;;;;;5078576;28;20209;-88
2022/06/12 14:03:49;;;;;;;7.33;2.27;;;22.90;1.00;;;;;;5090750;28;20220;-89
2022/06/12 14:06:22;;;;;;;5.77;2.10;;;23.20;1.00;;;;;;5092087;28;20171;-90
2022/06/12 14:09:17;;;;;;;4.13;1.70;;;23.30;1.00;;;;;;5104020;28;20156;-89
2022/06/12 14:11:45;;;;;;;7.07;2.40;;;23.20;1.00;;;;;;5087186;28;20245;-89
2022/06/12 14:14:36;;;;;;;3.53;1.60;;;23.30;1.00;;;;;;5105404;28;20196;-88
2022/06/12 14:17:21;;;;;;;4.93;1.93;;;23.20;1.00;;;;;;5090428;28;20169;-89
2022/06/12 14:20:15;;;;;;;3.17;1.70;;;23.20;1.00;;;;;;5107996;28;20195;-91
2022/06/12 14:22:52;;;;;;;5.33;2.00;;;23.00;1.00;;;;;;5084963;28;20176;-86
2022/06/12 14:25:35;;;;;;;7.20;1.83;;;23.00;1.00;;;;;;5082548;28;20300;-89